Time;durP1;ratioP1;P1;durP2;ratioP2;P2;SDS_P1;SDS_P2;PMS_P1;PMS_P2;Temp;Humidity;BMP_temperature;BMP_pressure;BME280_temperature;BME280_humidity;BME280_pressure;Samples;Min_cycle;Max_cycle;Signal;HPM_P1;HPM_P2
2023/06/18 00:02:08;;;;;;;28.60;26.57;;;;;;;16.18;100.00;101496.59;4982590;28;20430;-45
2023/06/18 00:04:36;;;;;;;26.83;24.80;;;;;;;16.13;100.00;101498.28;4981254;28;20471;-46
2023/06/18 00:07:04;;;;;;;30.23;27.60;;;;;;;16.09;100.00;101494.34;4982039;28;20489;-45
2023/06/18 00:09:32;;;;;;;26.27;24.57;;;;;;;16.08;100.00;101498.06;4981636;28;20602;-43
2023/06/18 00:12:00;;;;;;;29.10;27.00;;;;;;;16.04;100.00;101495.81;4981296;28;20474;-50
2023/06/18 00:14:28;;;;;;;29.63;27.60;;;;;;;16.06;100.00;101498.31;4981258;28;20462;-49
2023/06/18 00:16:57;;;;;;;28.57;26.47;;;;;;;16.05;100.00;101496.66;4981557;28;20498;-44
2023/06/18 00:19:24;;;;;;;28.27;25.93;;;;;;;16.04;100.00;101500.34;4981989;28;20494;-45
2023/06/18 00:21:53;;;;;;;29.70;27.17;;;;;;;16.05;100.00;101507.41;4981983;28;20945;-45
2023/06/18 00:24:20;;;;;;;31.93;29.20;;;;;;;16.05;100.00;101497.47;4981290;28;20470;-47
2023/06/18 00:26:49;;;;;;;26.70;25.10;;;;;;;16.04;100.00;101500.34;4981754;28;20435;-46
2023/06/18 00:29:16;;;;;;;29.13;27.03;;;;;;;16.07;100.00;101497.25;4981967;28;20451;-43
2023/06/18 00:31:44;;;;;;;29.10;27.20;;;;;;;16.05;100.00;101492.09;4982172;28;21008;-46
2023/06/18 00:34:15;;;;;;;29.10;26.93;;;;;;;16.04;100.00;101484.22;4980737;28;20469;-46
2023/06/18 00:36:50;;;;;;;27.77;25.87;;;;;;;15.97;100.00;101495.03;4982662;28;20852;-47
2023/06/18 00:39:18;;;;;;;29.43;27.47;;;;;;;15.89;100.00;101497.94;4982017;28;20459;-44
2023/06/18 00:41:46;;;;;;;29.00;26.90;;;;;;;15.83;100.00;101492.63;4981724;28;20490;-45
2023/06/18 00:44:14;;;;;;;26.30;24.70;;;;;;;15.79;100.00;101497.59;4981856;28;20466;-43
2023/06/18 00:46:46;;;;;;;26.90;25.00;;;;;;;15.75;100.00;101504.41;4982345;28;20511;-49
2023/06/18 00:49:18;;;;;;;29.57;27.47;;;;;;;15.68;100.00;101502.81;4982371;28;20451;-46
2023/06/18 00:51:47;;;;;;;28.50;26.50;;;;;;;15.62;100.00;101509.81;4983072;28;20459;-43
2023/06/18 00:54:17;;;;;;;31.90;29.50;;;;;;;15.61;100.00;101512.75;4981036;28;20446;-43
2023/06/18 00:56:50;;;;;;;31.00;28.57;;;;;;;15.62;100.00;101507.13;4981908;28;20466;-43
2023/06/18 00:59:22;;;;;;;30.17;28.07;;;;;;;15.62;100.00;101503.66;4981920;28;20458;-43
2023/06/18 01:01:52;;;;;;;28.93;27.03;;;;;;;15.57;100.00;101496.19;4981788;28;20426;-46
2023/06/18 01:04:23;;;;;;;29.80;27.90;;;;;;;15.53;100.00;101492.25;4982033;28;20482;-48
2023/06/18 01:06:54;;;;;;;30.00;27.90;;;;;;;15.49;100.00;101499.13;4981444;28;20421;-43
2023/06/18 01:09:24;;;;;;;30.70;28.40;;;;;;;15.48;100.00;101492.91;4981504;28;20470;-43
2023/06/18 01:11:52;;;;;;;28.87;26.97;;;;;;;15.48;100.00;101502.84;4980317;28;20478;-44
2023/06/18 01:14:21;;;;;;;30.10;27.60;;;;;;;15.48;100.00;101502.84;4981864;28;20533;-47
2023/06/18 01:16:51;;;;;;;30.30;27.87;;;;;;;15.50;100.00;101490.03;4981288;28;20435;-43
2023/06/18 01:19:40;;;;;;;31.00;28.60;;;;;;;15.47;100.00;101483.19;4981812;28;20451;-48
2023/06/18 01:22:21;;;;;;;30.73;28.13;;;;;;;15.46;100.00;101492.28;4981316;28;20448;-47
2023/06/18 01:24:51;;;;;;;29.37;26.87;;;;;;;15.48;100.00;101492.91;4980749;28;20473;-46
2023/06/18 01:27:21;;;;;;;31.37;29.00;;;;;;;15.47;100.00;101487.75;4981363;28;20927;-46
2023/06/18 01:29:51;;;;;;;32.73;28.57;;;;;;;15.43;100.00;101486.50;4981949;28;20463;-44
2023/06/18 01:32:21;;;;;;;30.47;28.17;;;;;;;15.35;100.00;101484.84;4981265;28;20479;-47
2023/06/18 01:34:53;;;;;;;31.10;28.90;;;;;;;15.32;100.00;101492.50;4980887;28;20490;-46
2023/06/18 01:37:35;;;;;;;29.30;27.30;;;;;;;15.29;100.00;101482.19;4981360;28;20927;-43
2023/06/18 01:40:18;;;;;;;31.70;29.47;;;;;;;15.24;100.00;101473.91;4981606;28;20785;-42
2023/06/18 01:42:51;;;;;;;34.60;31.67;;;;;;;15.19;100.00;101476.41;4980681;28;20427;-45
2023/06/18 01:45:25;;;;;;;33.50;30.47;;;;;;;15.15;100.00;101472.47;4980195;28;20490;-44
2023/06/18 01:47:56;;;;;;;31.50;29.30;;;;;;;15.13;100.00;101479.91;4981442;28;20435;-44
2023/06/18 01:50:27;;;;;;;32.63;30.00;;;;;;;15.10;100.00;101483.03;4980780;28;20443;-43
2023/06/18 01:52:58;;;;;;;32.80;30.07;;;;;;;15.06;100.00;101479.09;4980845;28;20846;-47
2023/06/18 01:55:28;;;;;;;31.63;29.23;;;;;;;15.05;100.00;101483.66;4980602;28;20501;-48
2023/06/18 01:57:56;;;;;;;30.47;28.27;;;;;;;15.02;100.00;101483.25;4980698;28;20447;-42
2023/06/18 02:00:24;;;;;;;33.30;30.83;;;;;;;14.98;100.00;101484.69;4980783;28;20555;-45
2023/06/18 02:02:52;;;;;;;31.40;29.20;;;;;;;14.96;100.00;101484.91;4980592;28;20442;-43
2023/06/18 02:05:20;;;;;;;32.67;30.23;;;;;;;14.94;100.00;101485.09;4980031;28;20463;-46
2023/06/18 02:07:49;;;;;;;32.70;30.27;;;;;;;14.94;100.00;101482.41;4980743;28;20438;-45
2023/06/18 02:10:17;;;;;;;33.97;31.47;;;;;;;14.93;100.00;101488.81;4980129;28;20443;-44
2023/06/18 02:12:45;;;;;;;32.73;30.27;;;;;;;14.90;100.00;101491.91;4980044;28;20478;-45
2023/06/18 02:15:14;;;;;;;33.30;30.73;;;;;;;14.89;100.00;101494.81;4979956;28;20462;-45
2023/06/18 02:17:43;;;;;;;33.60;31.10;;;;;;;14.87;100.00;101497.69;4980453;28;20780;-45
2023/06/18 02:20:12;;;;;;;30.77;28.33;;;;;;;14.83;100.00;101499.16;4980738;28;20439;-46
2023/06/18 02:22:39;;;;;;;29.03;26.97;;;;;;;14.83;100.00;101490.25;4979640;28;20526;-43
2023/06/18 02:25:09;;;;;;;33.57;31.13;;;;;;;14.82;100.00;101494.78;4980028;28;20485;-48
2023/06/18 02:27:37;;;;;;;35.13;32.40;;;;;;;14.79;100.00;101497.06;4979718;28;20470;-45
2023/06/18 02:30:06;;;;;;;32.23;29.53;;;;;;;14.74;100.00;101497.69;4979529;28;20478;-45
2023/06/18 02:32:36;;;;;;;33.83;31.43;;;;;;;14.71;100.00;101483.84;4979580;28;20506;-42
2023/06/18 02:35:05;;;;;;;29.97;27.67;;;;;;;14.71;100.00;101486.53;4979463;28;20485;-48
2023/06/18 02:37:32;;;;;;;32.43;30.33;;;;;;;14.72;100.00;101480.97;4979481;28;20493;-42
2023/06/18 02:40:00;;;;;;;33.10;29.90;;;;;;;14.72;100.00;101493.56;4979573;28;20438;-46
2023/06/18 02:42:31;;;;;;;32.07;29.60;;;;;;;14.73;100.00;101498.72;4980232;28;20434;-43
2023/06/18 02:45:03;;;;;;;32.37;29.80;;;;;;;14.73;100.00;101498.72;4979128;28;20463;-42
2023/06/18 02:47:30;;;;;;;32.30;29.80;;;;;;;14.76;100.00;101501.00;4979968;28;20426;-46
2023/06/18 02:49:58;;;;;;;29.13;27.03;;;;;;;14.78;100.00;101503.47;4978920;28;20498;-47
2023/06/18 02:52:26;;;;;;;28.50;26.50;;;;;;;14.80;100.00;101504.09;4979757;28;20470;-46
2023/06/18 02:54:53;;;;;;;32.37;29.77;;;;;;;14.78;100.00;101498.91;4979534;28;20545;-44
2023/06/18 02:57:21;;;;;;;30.43;28.03;;;;;;;14.78;100.00;101500.81;4979628;28;20434;-43
2023/06/18 02:59:50;;;;;;;28.87;26.80;;;;;;;14.80;100.00;101493.34;4980489;28;20579;-45
2023/06/18 03:02:18;;;;;;;31.27;28.90;;;;;;;14.82;100.00;101494.78;4980590;28;20435;-45
2023/06/18 03:04:46;;;;;;;30.37;28.17;;;;;;;14.86;100.00;101495.22;4979240;28;20466;-45
2023/06/18 03:07:13;;;;;;;32.03;29.33;;;;;;;14.88;100.00;101491.28;4980206;28;20443;-43
2023/06/18 03:09:41;;;;;;;29.67;27.37;;;;;;;14.90;100.00;101483.03;4979915;28;20563;-45
2023/06/18 03:12:11;;;;;;;31.10;28.77;;;;;;;14.92;100.00;101497.06;4979780;28;20965;-48
2023/06/18 03:14:38;;;;;;;29.60;27.50;;;;;;;14.98;100.00;101493.56;4979544;28;20465;-47
2023/06/18 03:17:08;;;;;;;28.33;26.43;;;;;;;15.05;100.00;101493.56;4980428;28;20931;-43
2023/06/18 03:19:35;;;;;;;27.57;25.63;;;;;;;15.07;100.00;101494.19;4979767;28;20529;-43
2023/06/18 03:22:04;;;;;;;28.90;26.90;;;;;;;15.10;100.00;101499.13;4979562;28;20470;-42
2023/06/18 03:24:32;;;;;;;27.63;25.63;;;;;;;15.15;100.00;101499.34;4979259;28;20490;-43
2023/06/18 03:27:00;;;;;;;28.07;26.17;;;;;;;15.41;100.00;101500.13;4980015;28;20452;-43
2023/06/18 03:29:28;;;;;;;26.53;24.73;;;;;;;15.94;100.00;101495.47;4980193;28;20462;-42
2023/06/18 03:31:56;;;;;;;24.80;23.10;;;;;;;16.48;100.00;101505.75;4979854;28;20438;-43
2023/06/18 03:34:26;;;;;;;26.80;24.90;;;;;;;16.73;100.00;101497.72;4978813;28;20474;-46
2023/06/18 03:36:54;;;;;;;26.33;24.50;;;;;;;16.75;100.00;101492.94;4983082;28;20434;-43
2023/06/18 03:39:22;;;;;;;25.97;24.27;;;;;;;16.74;100.00;101495.84;4983556;28;20462;-45
2023/06/18 03:41:50;;;;;;;27.10;25.50;;;;;;;16.75;100.00;101494.81;4983768;28;20431;-43
2023/06/18 03:44:18;;;;;;;27.10;25.40;;;;;;;16.75;100.00;101503.72;4983268;28;20481;-43
2023/06/18 03:46:45;;;;;;;25.80;24.20;;;;;;;16.77;100.00;101490.03;4984055;28;20462;-46
2023/06/18 03:49:14;;;;;;;27.03;25.23;;;;;;;16.78;100.00;101492.50;4983722;28;20481;-44
2023/06/18 03:51:43;;;;;;;26.50;24.67;;;;;;;16.83;100.00;101487.28;4983310;28;20465;-43
2023/06/18 03:54:11;;;;;;;24.97;23.40;;;;;;;16.89;100.00;101489.09;4982904;28;20470;-44
2023/06/18 03:56:39;;;;;;;24.27;22.73;;;;;;;16.98;100.00;101484.25;4983216;28;20518;-42
2023/06/18 03:59:07;;;;;;;24.40;22.97;;;;;;;17.06;100.00;101483.97;4983321;28;20509;-43
2023/06/18 04:01:35;;;;;;;25.10;23.50;;;;;;;17.15;100.00;101488.03;4982970;28;20449;-45
2023/06/18 04:04:03;;;;;;;24.80;23.10;;;;;;;17.20;100.00;101488.22;4983007;28;20439;-42
2023/06/18 04:06:31;;;;;;;26.60;24.80;;;;;;;17.26;100.00;101481.94;4983047;28;20435;-44
2023/06/18 04:09:00;;;;;;;27.33;25.37;;;;;;;17.29;100.00;101478.78;4982412;28;20467;-48
2023/06/18 04:11:28;;;;;;;27.77;25.47;;;;;;;17.34;100.00;101478.94;4983440;28;20940;-48
2023/06/18 04:13:55;;;;;;;27.53;25.30;;;;;;;17.40;100.00;101477.22;4982485;28;20976;-43
2023/06/18 04:16:23;;;;;;;27.27;24.60;;;;;;;17.53;100.00;101485.19;4983017;28;20442;-43
2023/06/18 04:18:51;;;;;;;26.63;24.67;;;;;;;17.67;100.00;101484.00;4982276;28;20450;-45
2023/06/18 04:21:19;;;;;;;26.93;24.93;;;;;;;17.77;100.00;101483.47;4982556;28;20447;-44
2023/06/18 04:23:47;;;;;;;26.10;24.30;;;;;;;17.86;100.00;101495.63;4982178;28;20474;-45
2023/06/18 04:26:16;;;;;;;26.00;24.00;;;;;;;18.01;100.00;101493.34;4981902;28;20477;-43
2023/06/18 04:28:44;;;;;;;27.23;24.97;;;;;;;18.32;100.00;101495.00;4998750;28;20465;-44
2023/06/18 04:31:11;;;;;;;32.10;29.80;;;;;;;19.35;100.00;101501.69;5001538;28;20472;-43
2023/06/18 04:33:39;;;;;;;31.97;29.07;;;;;;;20.45;100.00;101502.41;5001517;28;20847;-46
2023/06/18 04:36:07;;;;;;;26.83;25.13;;;;;;;21.45;100.00;101495.09;5000989;28;20469;-44
2023/06/18 04:38:35;;;;;;;29.10;27.30;;;;;;;22.38;100.00;101491.38;5001424;28;20805;-45
2023/06/18 04:41:02;;;;;;;29.07;27.13;;;;;;;23.13;100.00;101469.47;5001419;28;20433;-45
2023/06/18 04:43:31;;;;;;;28.07;26.27;;;;;;;23.85;100.00;101457.88;5001266;28;20445;-46
2023/06/18 04:45:59;;;;;;;28.67;26.80;;;;;;;24.60;100.00;101459.97;5000086;28;20843;-47
2023/06/18 04:48:27;;;;;;;27.03;25.43;;;;;;;25.33;100.00;101446.00;5000555;28;20445;-44
2023/06/18 04:50:55;;;;;;;25.40;23.87;;;;;;;25.79;100.00;101431.09;5001115;28;20441;-45
2023/06/18 04:53:23;;;;;;;28.63;26.80;;;;;;;26.25;100.00;101427.00;5000880;28;20484;-45
2023/06/18 04:55:51;;;;;;;25.83;24.33;;;;;;;26.67;100.00;101431.84;5000423;28;20461;-44
2023/06/18 04:58:20;;;;;;;29.47;27.60;;;;;;;26.81;100.00;101421.13;5000394;28;20457;-51
2023/06/18 05:00:50;;;;;;;27.87;26.17;;;;;;;27.04;100.00;101416.78;5000193;28;20461;-44
2023/06/18 05:03:17;;;;;;;24.30;22.90;;;;;;;27.31;100.00;101417.00;4999979;28;20434;-47
2023/06/18 05:05:46;;;;;;;26.30;24.60;;;;;;;27.46;100.00;101420.44;4999163;28;20469;-49
2023/06/18 05:08:13;;;;;;;25.77;24.37;;;;;;;27.87;100.00;101422.63;4999319;28;20473;-46
2023/06/18 05:10:41;;;;;;;21.07;19.87;;;;;;;28.42;100.00;101426.50;5000182;28;20444;-46
2023/06/18 05:13:09;;;;;;;23.50;22.10;;;;;;;28.74;100.00;101422.97;4999573;28;20433;-44
2023/06/18 05:15:36;;;;;;;19.03;18.03;;;;;;;28.89;100.00;101428.19;4998841;28;20465;-47
2023/06/18 05:18:06;;;;;;;20.53;19.23;;;;;;;29.25;100.00;101428.34;4999954;28;20527;-44
2023/06/18 05:20:33;;;;;;;21.43;20.13;;;;;;;29.28;93.97;101428.56;4999721;28;20440;-43
2023/06/18 05:23:01;;;;;;;19.50;18.40;;;;;;;29.54;94.78;101424.16;4999949;28;20444;-43
2023/06/18 05:25:29;;;;;;;21.67;20.37;;;;;;;29.75;100.00;101424.53;4998694;28;20226;-47
2023/06/18 05:27:57;;;;;;;21.80;20.37;;;;;;;29.97;92.31;101419.16;4999542;28;20273;-43
2023/06/18 05:30:24;;;;;;;19.30;18.03;;;;;;;30.28;97.98;101413.75;4999811;28;20194;-44
2023/06/18 05:32:52;;;;;;;22.00;20.50;;;;;;;30.42;75.15;101420.03;4999847;28;20261;-44
2023/06/18 05:35:21;;;;;;;23.00;21.37;;;;;;;30.56;86.09;101420.75;4999210;28;20230;-42
2023/06/18 05:37:49;;;;;;;20.93;19.73;;;;;;;30.69;88.07;101427.31;4999598;28;20603;-45
2023/06/18 05:40:17;;;;;;;20.97;19.67;;;;;;;30.67;81.54;101413.84;4999627;28;20201;-42
2023/06/18 05:42:46;;;;;;;19.80;18.60;;;;;;;31.29;83.65;101432.34;4999959;28;20202;-45
2023/06/18 05:45:14;;;;;;;17.70;16.60;;;;;;;31.52;81.13;101414.59;4999080;28;20229;-45
2023/06/18 05:47:42;;;;;;;19.07;18.03;;;;;;;31.86;77.36;101425.72;4999551;28;20222;-42
2023/06/18 05:50:10;;;;;;;20.70;19.30;;;;;;;31.95;76.71;101421.03;4999860;28;20249;-43
2023/06/18 05:52:41;;;;;;;19.33;18.08;;;;;;;32.26;70.66;101423.63;4999124;28;20194;-43
2023/06/18 05:55:09;;;;;;;19.70;18.60;;;;;;;32.34;68.34;101428.34;4999447;28;20234;-47
2023/06/18 05:57:37;;;;;;;19.33;17.92;;;;;;;32.48;66.99;101420.69;4999684;28;20210;-43
2023/06/18 06:00:05;;;;;;;18.58;17.38;;;;;;;32.66;66.21;101432.56;4999622;28;20198;-42
2023/06/18 06:02:33;;;;;;;18.73;17.63;;;;;;;32.44;63.57;101435.50;5000198;28;20198;-43
2023/06/18 06:05:01;;;;;;;18.92;17.58;;;;;;;32.59;59.83;101435.00;4998879;28;20222;-42
2023/06/18 06:07:29;;;;;;;18.75;17.50;;;;;;;32.61;59.61;101438.25;4999656;28;20210;-42
2023/06/18 06:09:58;;;;;;;17.33;16.33;;;;;;;32.63;55.41;101438.72;4999693;28;20253;-42
2023/06/18 06:12:26;;;;;;;14.90;13.98;;;;;;;33.01;60.39;101431.31;5000337;28;20202;-43
2023/06/18 06:14:53;;;;;;;15.95;14.85;;;;;;;33.16;56.05;101433.56;4998593;28;20230;-44
2023/06/18 06:17:21;;;;;;;14.85;13.95;;;;;;;33.34;56.66;101426.81;4999465;28;20198;-43
2023/06/18 06:19:49;;;;;;;16.25;15.02;;;;;;;33.73;51.59;101424.81;4999435;28;20219;-45
2023/06/18 06:22:17;;;;;;;15.65;14.65;;;;;;;33.86;53.98;101415.47;4999222;28;20226;-43
2023/06/18 06:24:44;;;;;;;15.00;14.10;;;;;;;33.74;48.44;101423.69;4998556;28;20222;-47
2023/06/18 06:27:14;;;;;;;12.70;11.60;;;;;;;33.98;53.76;101418.31;4999991;28;20199;-43
2023/06/18 06:29:41;;;;;;;14.45;13.55;;;;;;;34.18;53.07;101433.28;4999989;28;20580;-46
2023/06/18 06:32:09;;;;;;;15.32;14.13;;;;;;;34.26;47.92;101438.75;4999471;28;20260;-45
2023/06/18 06:34:37;;;;;;;14.73;13.73;;;;;;;34.00;49.99;101437.31;4999458;28;20225;-45
2023/06/18 06:37:05;;;;;;;14.30;13.40;;;;;;;34.12;51.53;101442.94;4999210;28;20679;-42
2023/06/18 06:39:32;;;;;;;12.43;11.73;;;;;;;34.42;50.97;101439.75;4999776;28;20237;-44
2023/06/18 06:42:01;;;;;;;14.73;13.82;;;;;;;34.44;47.96;101448.53;4999586;28;20198;-45
2023/06/18 06:44:30;;;;;;;13.13;12.32;;;;;;;34.49;47.55;101447.53;4999401;28;20237;-44
2023/06/18 06:46:57;;;;;;;13.45;12.52;;;;;;;33.95;47.20;101441.09;4998763;28;20206;-43
2023/06/18 06:49:25;;;;;;;11.60;10.90;;;;;;;34.01;50.49;101447.25;4999062;28;20222;-42
2023/06/18 06:51:55;;;;;;;13.98;12.73;;;;;;;33.74;46.25;101445.81;4998833;28;20248;-42
2023/06/18 06:54:23;;;;;;;10.73;10.07;;;;;;;33.54;47.62;101443.81;4998821;28;20230;-43
2023/06/18 06:56:51;;;;;;;12.00;11.18;;;;;;;33.34;50.75;101457.22;4999349;28;20213;-43
2023/06/18 06:59:19;;;;;;;14.18;13.27;;;;;;;33.19;49.22;101460.53;4999445;28;20573;-44
2023/06/18 07:01:49;;;;;;;11.82;10.90;;;;;;;32.80;48.47;101458.03;4998488;28;20294;-44
2023/06/18 07:04:16;;;;;;;11.18;10.30;;;;;;;33.17;49.94;101451.78;4998514;28;20249;-43
2023/06/18 07:06:44;;;;;;;10.63;10.02;;;;;;;33.20;48.72;101453.88;4999249;28;20234;-44
2023/06/18 07:09:12;;;;;;;9.57;9.07;;;;;;;33.65;49.71;101448.63;4999677;28;20659;-42
2023/06/18 07:11:40;;;;;;;9.07;8.48;;;;;;;34.15;46.18;101445.84;5002350;28;20225;-42
2023/06/18 07:14:08;;;;;;;9.88;9.27;;;;;;;34.39;44.89;101448.75;5003358;28;20193;-42
2023/06/18 07:16:36;;;;;;;9.82;9.23;;;;;;;33.76;42.19;101444.31;5002833;28;20656;-42
2023/06/18 07:19:05;;;;;;;10.40;9.75;;;;;;;34.04;44.89;101439.09;5003242;28;20770;-45
2023/06/18 07:21:33;;;;;;;10.20;9.30;;;;;;;33.81;42.28;101438.59;5001305;28;20201;-45
2023/06/18 07:24:01;;;;;;;10.00;9.20;;;;;;;33.99;43.94;101453.09;5002415;28;20206;-43
2023/06/18 07:26:29;;;;;;;9.98;9.23;;;;;;;33.26;42.28;101441.50;5001933;28;20731;-42
2023/06/18 07:28:56;;;;;;;8.77;8.27;;;;;;;33.11;45.57;101444.00;5001970;28;20223;-48
2023/06/18 07:31:24;;;;;;;9.15;8.55;;;;;;;32.83;44.17;101451.84;5001599;28;20194;-46
2023/06/18 07:33:53;;;;;;;8.40;7.82;;;;;;;32.36;43.70;101445.41;5001997;28;20191;-46
2023/06/18 07:36:22;;;;;;;9.90;9.10;;;;;;;32.11;43.66;101449.00;4981489;28;20269;-46
2023/06/18 07:38:50;;;;;;;9.05;8.52;;;;;;;32.57;47.96;101456.59;4981352;28;20215;-43
2023/06/18 07:41:18;;;;;;;10.82;9.90;;;;;;;32.15;42.86;101460.97;4982149;28;20223;-43
2023/06/18 07:43:45;;;;;;;9.32;8.65;;;;;;;32.05;45.56;101458.56;4981647;28;20276;-49
2023/06/18 07:46:13;;;;;;;9.23;8.73;;;;;;;32.07;47.42;101454.34;4981767;28;20274;-46
2023/06/18 07:48:41;;;;;;;8.68;8.02;;;;;;;31.95;44.05;101456.06;4978969;28;20218;-47
2023/06/18 07:51:09;;;;;;;8.60;8.10;;;;;;;31.62;46.71;101458.44;4990286;28;20242;-45
2023/06/18 07:53:39;;;;;;;8.88;8.20;;;;;;;31.54;44.37;101450.97;4974831;28;20237;-44
2023/06/18 07:56:07;;;;;;;7.43;6.82;;;;;;;31.50;47.78;101456.28;4992481;28;20225;-44
2023/06/18 07:58:35;;;;;;;8.35;7.85;;;;;;;31.08;44.35;101454.97;4994109;28;20583;-46
2023/06/18 08:01:03;;;;;;;8.82;8.32;;;;;;;30.63;44.89;101453.38;4994170;28;20293;-46
2023/06/18 08:03:31;;;;;;;9.68;8.98;;;;;;;30.75;47.39;101453.59;4993964;28;20203;-44
2023/06/18 08:05:59;;;;;;;9.00;8.50;;;;;;;31.04;48.35;101453.13;4993990;28;20277;-44
2023/06/18 08:08:26;;;;;;;7.27;6.77;;;;;;;31.43;49.59;101457.84;4993666;28;20260;-46
2023/06/18 08:10:55;;;;;;;9.10;8.50;;;;;;;31.55;47.87;101453.38;4994428;28;20252;-44
2023/06/18 08:13:23;;;;;;;8.83;8.03;;;;;;;31.40;48.29;101453.78;4993852;28;20226;-46
2023/06/18 08:15:51;;;;;;;9.68;8.80;;;;;;;31.45;49.33;101448.13;4978368;28;20222;-44
2023/06/18 08:18:18;;;;;;;8.57;8.07;;;;;;;31.53;48.87;101441.06;4974117;28;20218;-45
2023/06/18 08:20:46;;;;;;;7.33;6.93;;;;;;;31.57;48.63;101445.59;4974694;28;20199;-44
2023/06/18 08:23:15;;;;;;;8.33;7.83;;;;;;;31.34;48.50;101440.47;4973801;28;20234;-46
2023/06/18 08:25:42;;;;;;;8.67;8.00;;;;;;;30.31;48.30;101443.38;4974477;28;20270;-43
2023/06/18 08:28:11;;;;;;;9.20;8.60;;;;;;;30.01;48.02;101436.66;4968720;28;20309;-48
2023/06/18 08:30:39;;;;;;;8.97;8.47;;;;;;;29.68;50.09;101426.91;4974184;28;20696;-43
2023/06/18 08:33:07;;;;;;;7.90;7.40;;;;;;;29.45;48.24;101427.97;4973698;28;20577;-44
2023/06/18 08:35:37;;;;;;;8.70;8.00;;;;;;;29.22;50.18;101431.69;4974168;28;20231;-44
2023/06/18 08:38:05;;;;;;;7.30;6.90;;;;;;;29.15;49.36;101432.09;4974051;28;20513;-44
2023/06/18 08:40:38;;;;;;;7.93;7.50;;;;;;;28.88;49.34;101438.34;4973529;28;21027;-46
2023/06/18 08:43:09;;;;;;;8.23;7.70;;;;;;;28.76;49.35;101428.97;4973427;28;20945;-44
2023/06/18 08:45:39;;;;;;;7.97;7.53;;;;;;;29.12;50.60;101429.97;4974128;28;20482;-46
2023/06/18 08:48:09;;;;;;;7.77;7.27;;;;;;;29.37;51.07;101429.47;4973614;28;20450;-46
2023/06/18 08:51:03;;;;;;;7.90;7.40;;;;;;;29.71;49.72;101423.56;4973665;28;20439;-45
2023/06/18 08:53:40;;;;;;;7.83;7.33;;;;;;;30.02;50.19;101426.44;4973857;28;20908;-44
2023/06/18 08:56:09;;;;;;;7.97;7.37;;;;;;;30.14;48.91;101424.78;4973826;28;20968;-44
2023/06/18 08:58:42;;;;;;;7.53;7.13;;;;;;;30.26;49.36;101426.19;4973585;28;20454;-44
2023/06/18 09:01:13;;;;;;;10.40;8.47;;;;;;;29.96;50.25;101423.00;4973661;28;20438;-47
2023/06/18 09:03:42;;;;;;;8.13;7.57;;;;;;;30.15;49.26;101423.69;4973672;28;20449;-46
2023/06/18 09:06:11;;;;;;;8.37;7.80;;;;;;;30.11;48.03;101417.16;4973623;28;20462;-44
2023/06/18 09:08:39;;;;;;;7.67;7.10;;;;;;;30.03;48.35;101412.41;4973279;28;20469;-44
2023/06/18 09:11:07;;;;;;;9.13;7.60;;;;;;;29.93;47.88;101412.63;4973506;28;21007;-45
2023/06/18 09:13:42;;;;;;;8.17;7.67;;;;;;;30.00;48.44;101407.53;4973341;28;20529;-46
2023/06/18 09:16:11;;;;;;;8.83;8.10;;;;;;;29.94;47.24;101416.19;4973201;28;20478;-46
2023/06/18 09:18:39;;;;;;;7.90;7.40;;;;;;;29.46;48.08;101407.59;4972930;28;20526;-45
2023/06/18 09:21:07;;;;;;;8.80;8.20;;;;;;;29.44;49.31;101409.84;4973283;28;20529;-44
2023/06/18 09:23:35;;;;;;;8.13;7.63;;;;;;;29.71;50.21;101404.31;4973407;28;20881;-43
2023/06/18 09:26:03;;;;;;;7.93;7.33;;;;;;;29.96;50.62;101394.69;4973367;28;20494;-45
2023/06/18 09:28:31;;;;;;;7.90;7.40;;;;;;;29.55;49.46;101397.50;4963334;28;20995;-43
2023/06/18 09:31:00;;;;;;;8.10;7.60;;;;;;;28.82;49.63;101394.84;4972949;28;20437;-46
2023/06/18 09:33:32;;;;;;;7.50;7.00;;;;;;;28.72;52.67;101395.81;4972700;28;20438;-44
2023/06/18 09:36:04;;;;;;;8.73;8.10;;;;;;;28.62;51.84;101395.97;4972647;28;21070;-44
2023/06/18 09:38:34;;;;;;;8.33;7.83;;;;;;;28.47;49.26;101396.22;4972610;28;20454;-45
2023/06/18 09:41:03;;;;;;;8.20;7.60;;;;;;;28.39;50.78;101396.91;4973047;28;20517;-46
2023/06/18 09:43:35;;;;;;;8.40;7.70;;;;;;;28.75;52.04;101391.66;4973078;28;20943;-43
2023/06/18 09:46:07;;;;;;;8.47;7.93;;;;;;;29.04;51.24;101387.53;4972853;28;20524;-45
2023/06/18 09:48:38;;;;;;;7.97;7.37;;;;;;;29.37;50.97;101381.94;4972429;28;20454;-46
2023/06/18 09:51:06;;;;;;;7.63;7.10;;;;;;;29.82;50.29;101404.91;4973273;28;20789;-43
2023/06/18 09:53:34;;;;;;;7.33;6.83;;;;;;;30.19;48.80;101385.34;4973143;28;20438;-45
2023/06/18 09:56:12;;;;;;;7.13;6.73;;;;;;;30.29;48.47;101398.03;4972564;28;21026;-43
2023/06/18 09:58:42;;;;;;;8.33;7.57;;;;;;;30.37;46.49;101400.06;4971719;28;20489;-47
2023/06/18 10:01:10;;;;;;;7.33;6.93;;;;;;;30.35;47.21;101394.84;4972989;28;20434;-43
2023/06/18 10:03:40;;;;;;;7.80;7.27;;;;;;;30.46;44.52;101399.03;4972595;28;20932;-45
2023/06/18 10:06:16;;;;;;;7.23;6.60;;;;;;;30.48;45.48;101401.44;4972413;28;20463;-44
2023/06/18 10:08:45;;;;;;;7.07;6.63;;;;;;;30.52;45.60;101395.00;4971816;28;21202;-49
2023/06/18 10:11:15;;;;;;;7.53;7.00;;;;;;;30.90;46.80;101395.38;4972596;28;20489;-45
2023/06/18 10:13:47;;;;;;;6.90;6.50;;;;;;;30.47;44.37;101399.81;4972339;28;20959;-49
2023/06/18 10:16:16;;;;;;;7.17;6.77;;;;;;;30.54;44.50;101394.69;4972406;28;20474;-45
2023/06/18 10:18:55;;;;;;;7.57;7.07;;;;;;;30.89;45.52;101413.03;4972084;28;20480;-46
2023/06/18 10:21:25;;;;;;;7.10;6.50;;;;;;;30.95;43.35;101405.47;4972760;28;20449;-45
2023/06/18 10:23:56;;;;;;;7.77;7.17;;;;;;;30.21;42.20;101407.03;4972481;28;20489;-43
2023/06/18 10:26:25;;;;;;;7.43;6.93;;;;;;;29.78;45.25;101406.66;4972597;28;20813;-43
2023/06/18 10:28:53;;;;;;;6.93;6.33;;;;;;;29.80;44.81;101394.22;4965913;28;20458;-45
2023/06/18 10:31:21;;;;;;;7.87;7.33;;;;;;;29.87;45.94;101402.88;4972087;28;20469;-46
2023/06/18 10:33:51;;;;;;;9.07;7.47;;;;;;;29.32;47.29;101395.81;4972497;28;20517;-43
2023/06/18 10:36:19;;;;;;;7.37;6.77;;;;;;;29.96;45.93;101397.44;4972169;28;20470;-46
2023/06/18 10:38:47;;;;;;;7.00;6.60;;;;;;;30.16;45.23;101392.31;4971476;28;20454;-44
2023/06/18 10:41:21;;;;;;;6.60;6.20;;;;;;;30.44;44.31;101383.91;4972157;28;20537;-46
2023/06/18 10:43:54;;;;;;;6.67;6.20;;;;;;;30.31;44.43;101382.03;4972655;28;20444;-44
2023/06/18 10:46:23;;;;;;;7.00;6.40;;;;;;;30.36;44.18;101381.91;4979107;28;20444;-44
2023/06/18 10:49:16;;;;;;;7.53;7.07;;;;;;;30.79;42.60;101380.25;4977790;28;20529;-47
2023/06/18 10:51:51;;;;;;;7.23;6.83;;;;;;;30.38;43.14;101372.22;4969234;28;20466;-45
2023/06/18 10:54:21;;;;;;;6.37;5.87;;;;;;;30.05;42.05;101370.81;4978627;28;20426;-43
2023/06/18 10:56:54;;;;;;;6.97;6.57;;;;;;;29.41;46.77;101371.97;4979111;28;20528;-45
2023/06/18 10:59:36;;;;;;;6.80;6.40;;;;;;;29.29;44.75;101374.44;4977448;28;20455;-44
2023/06/18 11:02:05;;;;;;;7.27;6.80;;;;;;;29.32;44.25;101374.66;4978908;28;20868;-45
2023/06/18 11:04:35;;;;;;;6.73;6.27;;;;;;;29.32;44.99;101368.34;4972870;28;21014;-47
2023/06/18 11:07:18;;;;;;;7.07;6.57;;;;;;;29.59;42.08;101368.28;4978700;28;20430;-43
2023/06/18 11:09:53;;;;;;;7.23;6.73;;;;;;;29.65;42.91;101367.06;4981111;28;20559;-45
2023/06/18 11:12:23;;;;;;;7.07;6.43;;;;;;;29.41;44.73;101367.31;4997520;28;20468;-44
2023/06/18 11:15:05;;;;;;;7.70;7.20;;;;;;;29.29;43.11;101366.19;4998107;28;20440;-44
2023/06/18 11:17:34;;;;;;;6.77;6.37;;;;;;;29.33;44.63;101370.75;4997277;28;20568;-43
2023/06/18 11:20:05;;;;;;;7.23;6.53;;;;;;;29.29;44.14;101363.44;4992239;28;20462;-47
2023/06/18 11:22:35;;;;;;;6.90;6.50;;;;;;;29.36;42.75;101366.59;4977884;28;20534;-46